createdAt,value
2018-12-01T00:02:26.450Z,18.90
2018-12-01T00:04:54.519Z,13.20
2018-12-01T00:07:22.587Z,14.47
2018-12-01T00:09:50.606Z,16.50
2018-12-01T00:12:18.662Z,16.17
2018-12-01T00:14:46.659Z,21.43
2018-12-01T00:17:14.708Z,17.70
2018-12-01T00:19:42.782Z,14.27
2018-12-01T00:22:10.762Z,15.60
2018-12-01T00:24:38.783Z,14.07
2018-12-01T00:27:06.510Z,15.03
2018-12-01T00:29:34.493Z,18.23
2018-12-01T00:32:03.527Z,20.03
2018-12-01T00:34:32.551Z,16.30
2018-12-01T00:37:00.570Z,12.97
2018-12-01T00:39:28.792Z,15.43
2018-12-01T00:41:56.893Z,21.80
2018-12-01T00:44:24.912Z,20.47
2018-12-01T00:46:52.998Z,15.13
2018-12-01T00:49:21.058Z,23.00
2018-12-01T00:51:49.070Z,13.33
2018-12-01T00:54:17.080Z,18.30
2018-12-01T00:56:45.067Z,16.83
2018-12-01T00:59:13.076Z,19.40
2018-12-01T01:01:41.066Z,12.60
2018-12-01T01:04:09.302Z,13.73
2018-12-01T01:06:37.334Z,16.00
2018-12-01T01:09:06.276Z,11.53
2018-12-01T01:11:34.335Z,15.07
2018-12-01T01:14:02.334Z,11.20
2018-12-01T01:16:30.359Z,11.60
2018-12-01T01:18:58.353Z,17.77
2018-12-01T01:21:26.355Z,17.60
2018-12-01T01:23:54.394Z,12.57
2018-12-01T01:26:22.420Z,11.50
2018-12-01T01:28:50.471Z,14.67
2018-12-01T01:31:18.565Z,11.70
2018-12-01T01:33:46.672Z,20.27
2018-12-01T01:36:14.691Z,11.50
2018-12-01T01:38:42.709Z,15.27
2018-12-01T01:41:10.702Z,13.50
2018-12-01T01:43:38.722Z,15.00
2018-12-01T01:46:06.770Z,12.93
2018-12-01T01:48:34.843Z,12.10
2018-12-01T01:51:02.849Z,14.97
2018-12-01T01:53:30.823Z,12.87
2018-12-01T01:55:58.852Z,13.40
2018-12-01T01:58:26.889Z,12.97
2018-12-01T02:00:54.874Z,22.60
2018-12-01T02:03:22.906Z,12.33
2018-12-01T02:05:50.907Z,10.07
2018-12-01T02:08:18.927Z,14.40
2018-12-01T02:10:47.154Z,14.87
2018-12-01T02:13:15.179Z,11.03
2018-12-01T02:15:43.215Z,12.90
2018-12-01T02:18:11.238Z,13.73
2018-12-01T02:20:39.232Z,12.90
2018-12-01T02:23:07.246Z,10.57
2018-12-01T02:25:35.296Z,16.33
2018-12-01T02:28:03.422Z,11.43
2018-12-01T02:30:31.455Z,15.93
2018-12-01T02:32:59.492Z,9.90
2018-12-01T02:35:28.101Z,16.87
2018-12-01T02:37:56.119Z,13.77
2018-12-01T02:40:24.214Z,13.43
2018-12-01T02:42:52.523Z,12.53
2018-12-01T02:45:26.210Z,18.03
2018-12-01T02:47:54.218Z,14.53
2018-12-01T02:50:23.161Z,15.17
2018-12-01T02:52:51.728Z,11.90
2018-12-01T02:55:20.262Z,12.50
2018-12-01T02:57:48.282Z,11.13
2018-12-01T03:00:16.314Z,10.33
2018-12-01T03:02:44.314Z,10.27
2018-12-01T03:05:12.386Z,12.17
2018-12-01T03:07:40.520Z,12.87
2018-12-01T03:10:10.002Z,15.70
2018-12-01T03:12:38.022Z,17.23
2018-12-01T03:15:07.080Z,12.20
2018-12-01T03:17:35.111Z,8.93
2018-12-01T03:20:03.402Z,14.13
2018-12-01T03:22:31.464Z,10.97
2018-12-01T03:24:59.450Z,11.37
2018-12-01T03:27:31.797Z,15.83
2018-12-01T03:29:59.858Z,18.27
2018-12-01T03:32:27.867Z,13.20
2018-12-01T03:34:55.926Z,10.90
2018-12-01T03:37:23.962Z,11.23
2018-12-01T03:39:51.978Z,9.30
2018-12-01T03:42:19.982Z,16.17
2018-12-01T03:44:47.992Z,11.43
2018-12-01T03:47:16.030Z,17.67
2018-12-01T03:49:44.125Z,18.00
2018-12-01T03:52:12.122Z,22.30
2018-12-01T03:54:40.133Z,15.60
2018-12-01T03:57:08.142Z,16.07
2018-12-01T03:59:36.154Z,14.27
2018-12-01T04:02:04.181Z,12.60
2018-12-01T04:04:32.214Z,14.83
2018-12-01T04:07:00.254Z,9.27
2018-12-01T04:09:28.287Z,19.00
2018-12-01T04:11:56.406Z,9.30
2018-12-01T04:14:24.400Z,19.17
2018-12-01T04:16:52.398Z,19.53
2018-12-01T04:19:20.432Z,15.67
2018-12-01T04:21:48.461Z,14.33
2018-12-01T04:24:16.488Z,14.10
2018-12-01T04:26:44.548Z,18.10
2018-12-01T04:29:12.533Z,12.47
2018-12-01T04:31:40.518Z,15.87
2018-12-01T04:34:08.564Z,19.63
2018-12-01T04:36:36.634Z,10.37
2018-12-01T04:39:06.282Z,11.83
2018-12-01T04:41:34.314Z,22.17
2018-12-01T04:44:02.303Z,14.40
2018-12-01T04:46:30.312Z,15.83
2018-12-01T04:48:58.337Z,16.70
2018-12-01T04:51:26.338Z,16.60
2018-12-01T04:53:54.381Z,13.70
2018-12-01T04:56:22.386Z,18.23
2018-12-01T04:58:50.411Z,19.90
2018-12-01T05:01:18.378Z,13.60
2018-12-01T05:03:46.481Z,23.23
2018-12-01T05:06:14.484Z,12.03
2018-12-01T05:08:42.518Z,15.23
2018-12-01T05:11:10.551Z,15.20
2018-12-01T05:13:38.570Z,11.07
2018-12-01T05:16:06.574Z,15.07
2018-12-01T05:18:34.602Z,15.10
2018-12-01T05:21:02.598Z,10.70
2018-12-01T05:23:30.608Z,17.50
2018-12-01T05:25:58.634Z,12.83
2018-12-01T05:28:26.634Z,12.50
2018-12-01T05:30:54.634Z,14.43
2018-12-01T05:33:22.658Z,12.30
2018-12-01T05:35:50.669Z,12.13
2018-12-01T05:38:19.054Z,13.67
2018-12-01T05:40:47.063Z,16.10
2018-12-01T05:43:15.058Z,12.40
2018-12-01T05:45:43.069Z,18.00
2018-12-01T05:48:11.094Z,9.67
2018-12-01T05:50:39.151Z,13.53
2018-12-01T05:53:07.183Z,16.90
2018-12-01T05:55:35.299Z,15.00
2018-12-01T05:58:03.330Z,15.10
2018-12-01T06:00:31.318Z,13.90
2018-12-01T06:02:59.358Z,11.53
2018-12-01T06:05:27.394Z,12.73
2018-12-01T06:07:55.419Z,14.47
2018-12-01T06:10:23.489Z,13.47
2018-12-01T06:12:51.950Z,17.40
2018-12-01T06:15:20.394Z,15.63
2018-12-01T06:17:48.824Z,19.03
2018-12-01T06:20:18.516Z,15.77
2018-12-01T06:22:46.571Z,16.80
2018-12-01T06:25:15.196Z,12.67
2018-12-01T06:27:43.236Z,15.00
2018-12-01T06:30:11.996Z,13.53
2018-12-01T06:32:40.023Z,16.83
2018-12-01T06:35:08.055Z,13.57
2018-12-01T06:37:36.024Z,11.40
2018-12-01T06:40:05.086Z,18.57
2018-12-01T06:42:33.102Z,12.00
2018-12-01T06:45:01.154Z,17.70
2018-12-01T06:47:29.245Z,13.97
2018-12-01T06:49:57.230Z,11.93
2018-12-01T06:52:25.222Z,17.80
2018-12-01T06:54:53.270Z,20.43
2018-12-01T06:57:21.335Z,17.53
2018-12-01T06:59:49.326Z,14.17
2018-12-01T07:02:17.365Z,15.20
2018-12-01T07:04:45.359Z,18.73
2018-12-01T07:07:13.366Z,13.60
2018-12-01T07:09:41.427Z,14.20
2018-12-01T07:12:09.398Z,14.27
2018-12-01T07:14:37.437Z,11.03
2018-12-01T07:17:05.591Z,14.87
2018-12-01T07:19:33.723Z,15.00
2018-12-01T07:22:01.722Z,16.40
2018-12-01T07:24:29.759Z,12.97
2018-12-01T07:26:57.762Z,16.83
2018-12-01T07:29:25.886Z,16.07
2018-12-01T07:31:53.933Z,14.57
2018-12-01T07:34:21.933Z,11.70
2018-12-01T07:36:49.990Z,16.43
2018-12-01T07:39:17.990Z,11.13
2018-12-01T07:41:45.982Z,15.87
2018-12-01T07:44:13.971Z,13.13
2018-12-01T07:46:42.348Z,11.20
2018-12-01T07:49:10.366Z,14.17
2018-12-01T07:51:38.422Z,17.83
2018-12-01T07:54:06.438Z,13.57
2018-12-01T07:56:34.470Z,12.67
2018-12-01T07:59:02.491Z,14.67
2018-12-01T08:01:30.507Z,12.30
2018-12-01T08:03:58.510Z,14.83
2018-12-01T08:06:26.559Z,13.57
2018-12-01T08:08:54.582Z,13.43
2018-12-01T08:11:22.591Z,17.60
2018-12-01T08:13:50.548Z,18.23
2018-12-01T08:16:18.587Z,14.10
2018-12-01T08:18:46.590Z,17.97
2018-12-01T08:21:14.590Z,18.23
2018-12-01T08:23:42.624Z,15.77
2018-12-01T08:26:10.681Z,13.37
2018-12-01T08:28:38.677Z,18.17
2018-12-01T08:31:06.703Z,16.10
2018-12-01T08:33:34.694Z,20.33
2018-12-01T08:36:02.746Z,17.97
2018-12-01T08:38:30.806Z,11.67
2018-12-01T08:40:58.806Z,17.63
2018-12-01T08:43:26.855Z,21.07
2018-12-01T08:45:55.004Z,14.93
2018-12-01T08:48:22.994Z,14.70
2018-12-01T08:50:55.310Z,16.27
2018-12-01T08:53:23.349Z,12.03
2018-12-01T08:55:51.357Z,17.93
2018-12-01T08:58:19.662Z,11.97
2018-12-01T09:00:47.757Z,19.27
2018-12-01T09:03:16.656Z,14.30
2018-12-01T09:05:44.685Z,15.97
2018-12-01T09:08:12.690Z,9.47
2018-12-01T09:10:40.694Z,15.70
2018-12-01T09:13:09.756Z,7.00
2018-12-01T09:15:37.758Z,13.23
2018-12-01T09:18:05.759Z,10.63
2018-12-01T09:20:33.975Z,16.00
2018-12-01T09:23:01.954Z,11.20
2018-12-01T09:25:29.977Z,12.60
2018-12-01T09:27:58.076Z,10.13
2018-12-01T09:30:26.708Z,10.97
2018-12-01T09:32:54.701Z,16.13
2018-12-01T09:35:22.775Z,10.40
2018-12-01T09:37:50.847Z,10.20
2018-12-01T09:40:20.494Z,8.63
2018-12-01T09:42:48.801Z,13.00
2018-12-01T09:45:17.473Z,12.47
2018-12-01T09:47:47.347Z,17.27
2018-12-01T09:50:15.574Z,11.50
2018-12-01T09:52:44.523Z,11.63
2018-12-01T09:55:13.473Z,13.60
2018-12-01T09:57:47.301Z,13.23
2018-12-01T10:00:16.058Z,13.97
2018-12-01T10:02:45.976Z,15.67
2018-12-01T10:05:15.064Z,10.70
2018-12-01T10:07:44.225Z,12.87
2018-12-01T10:10:12.906Z,11.23
2018-12-01T10:12:41.231Z,10.17
2018-12-01T10:15:11.063Z,12.20
2018-12-01T10:17:40.848Z,10.73
2018-12-01T10:20:09.600Z,9.67
2018-12-01T10:22:37.819Z,9.10
2018-12-01T10:25:07.307Z,13.97
2018-12-01T10:27:35.447Z,10.37
2018-12-01T10:30:04.659Z,9.93
2018-12-01T10:32:33.087Z,9.23
2018-12-01T10:35:01.217Z,10.37
2018-12-01T10:37:30.522Z,14.23
2018-12-01T10:39:58.860Z,11.63
2018-12-01T10:42:26.944Z,12.57
2018-12-01T10:44:55.311Z,8.33
2018-12-01T10:47:23.790Z,7.27
2018-12-01T10:49:51.951Z,11.10
2018-12-01T10:52:20.485Z,11.97
2018-12-01T10:54:49.159Z,9.53
2018-12-01T10:57:17.723Z,15.40
2018-12-01T10:59:45.760Z,10.27
2018-12-01T11:02:20.019Z,10.00
2018-12-01T11:04:48.321Z,12.47
2018-12-01T11:07:17.422Z,15.37
2018-12-01T11:09:45.958Z,11.53
2018-12-01T11:12:14.155Z,9.13
2018-12-01T11:14:42.436Z,9.10
2018-12-01T11:17:10.711Z,11.90
2018-12-01T11:19:40.294Z,9.63
2018-12-01T11:22:08.378Z,9.10
2018-12-01T11:24:36.667Z,10.87
2018-12-01T11:27:05.234Z,10.07
2018-12-01T11:29:33.703Z,11.97
2018-12-01T11:32:02.594Z,10.60
2018-12-01T11:34:30.650Z,9.40
2018-12-01T11:36:58.732Z,9.37
2018-12-01T11:39:27.351Z,8.97
2018-12-01T11:41:55.401Z,11.20
2018-12-01T11:44:24.383Z,7.07
2018-12-01T11:46:59.104Z,8.90
2018-12-01T11:49:28.047Z,10.07
2018-12-01T11:51:57.177Z,8.20
2018-12-01T11:54:26.391Z,9.57
2018-12-01T11:56:59.333Z,8.70
2018-12-01T11:59:30.142Z,12.37
2018-12-01T12:02:00.507Z,12.00
2018-12-01T12:04:27.799Z,8.37
2018-12-01T12:07:00.100Z,7.43
2018-12-01T12:09:28.349Z,7.40
2018-12-01T12:11:56.918Z,7.67
2018-12-01T12:14:24.942Z,6.60
2018-12-01T12:16:52.994Z,9.07
2018-12-01T12:19:20.998Z,7.40
2018-12-01T12:21:48.995Z,6.70
2018-12-01T12:24:17.050Z,7.07
2018-12-01T12:26:50.229Z,6.67
2018-12-01T12:29:18.286Z,5.73
2018-12-01T12:31:46.306Z,7.27
2018-12-01T12:34:14.309Z,6.30
2018-12-01T12:36:42.334Z,5.77
2018-12-01T12:39:10.388Z,8.30
2018-12-01T12:41:38.423Z,9.37
2018-12-01T12:44:06.435Z,9.37
2018-12-01T12:46:34.423Z,7.70
2018-12-01T12:49:02.499Z,9.33
2018-12-01T12:51:30.545Z,5.73
2018-12-01T12:53:58.546Z,5.20
2018-12-01T12:56:26.630Z,6.37
2018-12-01T12:58:54.623Z,5.37
2018-12-01T13:01:22.622Z,6.00
2018-12-01T13:03:50.651Z,6.70
2018-12-01T13:06:18.687Z,7.07
2018-12-01T13:08:46.780Z,7.97
2018-12-01T13:11:14.835Z,7.97
2018-12-01T13:13:42.847Z,9.53
2018-12-01T13:16:10.858Z,8.70
2018-12-01T13:18:38.890Z,5.67
2018-12-01T13:21:07.182Z,6.43
2018-12-01T13:23:35.176Z,6.93
2018-12-01T13:26:03.236Z,6.40
2018-12-01T13:28:31.453Z,6.43
2018-12-01T13:30:59.937Z,7.17
2018-12-01T13:33:28.074Z,8.37
2018-12-01T13:35:56.524Z,6.33
2018-12-01T13:38:24.638Z,9.80
2018-12-01T13:40:52.754Z,8.03
2018-12-01T13:43:20.859Z,6.30
2018-12-01T13:45:48.955Z,7.13
2018-12-01T13:48:17.111Z,7.77
2018-12-01T13:50:45.165Z,10.80
2018-12-01T13:53:13.616Z,7.10
2018-12-01T13:55:41.691Z,9.67
2018-12-01T13:58:09.779Z,6.63
2018-12-01T14:00:37.988Z,5.60
2018-12-01T14:03:06.150Z,10.47
2018-12-01T14:05:34.279Z,6.10
2018-12-01T14:08:02.432Z,5.37
2018-12-01T14:10:30.960Z,6.47
2018-12-01T14:12:59.863Z,10.50
2018-12-01T14:15:28.486Z,5.37
2018-12-01T14:17:57.186Z,4.63
2018-12-01T14:20:25.240Z,4.57
2018-12-01T14:22:53.348Z,4.67
2018-12-01T14:25:21.813Z,5.23
2018-12-01T14:27:50.751Z,4.57
2018-12-01T14:30:18.835Z,6.20
2018-12-01T14:32:47.014Z,5.20
2018-12-01T14:35:21.907Z,4.47
2018-12-01T14:37:50.684Z,5.97
2018-12-01T14:40:18.895Z,6.53
2018-12-01T14:42:46.929Z,5.63
2018-12-01T14:45:15.779Z,5.47
2018-12-01T14:47:43.939Z,5.60
2018-12-01T14:50:12.467Z,6.03
2018-12-01T14:52:41.043Z,5.70
2018-12-01T14:55:09.938Z,6.00
2018-12-01T14:57:38.050Z,6.53
2018-12-01T15:00:09.251Z,4.17
2018-12-01T15:02:37.416Z,4.67
2018-12-01T15:05:05.737Z,6.40
2018-12-01T15:07:33.816Z,3.53
2018-12-01T15:10:02.042Z,5.83
2018-12-01T15:12:31.064Z,3.80
2018-12-01T15:14:59.164Z,5.60
2018-12-01T15:17:27.492Z,5.50
2018-12-01T15:19:55.580Z,5.97
2018-12-01T15:22:23.631Z,5.40
2018-12-01T15:24:51.742Z,4.77
2018-12-01T15:27:19.805Z,4.87
2018-12-01T15:29:47.911Z,6.23
2018-12-01T15:32:15.970Z,4.10
2018-12-01T15:34:44.138Z,5.07
2018-12-01T15:37:12.211Z,5.07
2018-12-01T15:39:42.396Z,4.03
2018-12-01T15:42:10.510Z,5.37
2018-12-01T15:44:39.015Z,4.40
2018-12-01T15:47:07.067Z,5.13
2018-12-01T15:49:35.127Z,4.17
2018-12-01T15:52:03.275Z,6.73
2018-12-01T15:54:31.367Z,5.77
2018-12-01T15:56:59.461Z,5.83
2018-12-01T15:59:27.533Z,5.40
2018-12-01T16:01:55.691Z,5.30
2018-12-01T16:04:23.768Z,4.10
2018-12-01T16:06:51.842Z,3.37
2018-12-01T16:09:19.956Z,5.00
2018-12-01T16:11:48.478Z,6.30
2018-12-01T16:14:16.602Z,5.47
2018-12-01T16:16:44.723Z,5.40
2018-12-01T16:19:12.807Z,3.37
2018-12-01T16:21:40.875Z,6.63
2018-12-01T16:24:08.992Z,6.17
2018-12-01T16:26:37.086Z,4.90
2018-12-01T16:29:05.468Z,6.03
2018-12-01T16:31:33.552Z,7.20
2018-12-01T16:34:01.577Z,6.33
2018-12-01T16:36:29.710Z,4.50
2018-12-01T16:38:57.835Z,6.87
2018-12-01T16:41:27.015Z,5.23
2018-12-01T16:43:55.058Z,6.83
2018-12-01T16:46:23.140Z,4.60
2018-12-01T16:48:51.153Z,8.07
2018-12-01T16:51:19.216Z,6.70
2018-12-01T16:53:47.284Z,8.87
2018-12-01T16:56:15.342Z,8.60
2018-12-01T16:58:43.395Z,6.30
2018-12-01T17:01:11.467Z,7.17
2018-12-01T17:03:39.508Z,4.83
2018-12-01T17:06:08.927Z,4.77
2018-12-01T17:08:37.015Z,4.50
2018-12-01T17:11:05.643Z,5.20
2018-12-01T17:13:33.683Z,5.93
2018-12-01T17:16:01.747Z,5.00
2018-12-01T17:18:29.923Z,5.40
2018-12-01T17:20:57.984Z,8.03
2018-12-01T17:23:26.051Z,4.17
2018-12-01T17:25:54.086Z,6.27
2018-12-01T17:28:22.167Z,5.83
2018-12-01T17:30:50.580Z,6.67
2018-12-01T17:33:18.840Z,7.37
2018-12-01T17:35:46.888Z,5.43
2018-12-01T17:38:18.574Z,5.93
2018-12-01T17:41:20.221Z,5.97
2018-12-01T17:43:48.100Z,8.27
2018-12-01T17:46:16.151Z,7.20
2018-12-01T17:48:44.285Z,9.00
2018-12-01T17:51:12.302Z,6.40
2018-12-01T17:53:40.845Z,6.83
2018-12-01T17:56:08.953Z,8.33
2018-12-01T17:58:37.031Z,7.00
2018-12-01T18:01:05.272Z,8.37
2018-12-01T18:03:33.307Z,7.93
2018-12-01T18:06:01.458Z,7.90
2018-12-01T18:08:29.539Z,7.70
2018-12-01T18:10:57.590Z,4.80
2018-12-01T18:13:25.657Z,3.60
2018-12-01T18:15:53.766Z,3.60
2018-12-01T18:18:21.804Z,6.57
2018-12-01T18:20:49.859Z,4.63
2018-12-01T18:23:18.840Z,5.33
2018-12-01T18:25:47.540Z,4.20
2018-12-01T18:28:16.855Z,9.67
2018-12-01T18:30:45.032Z,5.67
2018-12-01T18:33:15.017Z,6.83
2018-12-01T18:35:45.630Z,4.92
2018-12-01T18:38:13.864Z,3.37
2018-12-01T18:40:44.036Z,6.87
2018-12-01T18:43:12.142Z,4.40
2018-12-01T18:45:41.447Z,4.90
2018-12-01T18:48:09.477Z,5.40
2018-12-01T18:50:37.594Z,4.77
2018-12-01T18:53:06.731Z,4.83
2018-12-01T18:55:35.461Z,4.37
2018-12-01T18:58:03.544Z,6.37
2018-12-01T19:00:33.490Z,4.90
2018-12-01T19:03:01.545Z,5.23
2018-12-01T19:05:29.635Z,4.97
2018-12-01T19:07:57.717Z,5.00
2018-12-01T19:10:25.812Z,3.63
2018-12-01T19:12:57.356Z,5.93
2018-12-01T19:15:25.469Z,5.23
2018-12-01T19:17:53.587Z,5.47
2018-12-01T19:20:21.920Z,5.10
2018-12-01T19:22:50.083Z,4.73
2018-12-01T19:25:19.548Z,4.43
2018-12-01T19:27:47.766Z,3.07
2018-12-01T19:30:16.336Z,5.83
2018-12-01T19:32:47.143Z,4.07
2018-12-01T19:35:15.643Z,4.23
2018-12-01T19:37:44.351Z,5.07
2018-12-01T19:40:13.293Z,8.23
2018-12-01T19:42:42.389Z,5.60
2018-12-01T19:45:10.525Z,5.57
2018-12-01T19:47:38.622Z,4.87
2018-12-01T19:50:11.496Z,4.73
2018-12-01T19:52:39.614Z,5.97
2018-12-01T19:55:08.729Z,5.10
2018-12-01T19:57:36.977Z,7.10
2018-12-01T20:00:06.108Z,5.40
2018-12-01T20:02:34.272Z,3.93
2018-12-01T20:05:04.989Z,6.00
2018-12-01T20:07:33.094Z,5.10
2018-12-01T20:10:01.239Z,4.17
2018-12-01T20:12:29.355Z,3.23
2018-12-01T20:14:57.500Z,5.70
2018-12-01T20:17:25.604Z,5.40
2018-12-01T20:19:53.739Z,3.47
2018-12-01T20:22:21.856Z,4.63
2018-12-01T20:24:49.905Z,3.90
2018-12-01T20:27:18.072Z,6.13
2018-12-01T20:29:46.258Z,4.60
2018-12-01T20:32:14.391Z,4.97
2018-12-01T20:34:42.460Z,4.93
2018-12-01T20:37:13.549Z,3.57
2018-12-01T20:39:42.689Z,5.67
2018-12-01T20:42:10.764Z,7.00
2018-12-01T20:44:38.904Z,7.07
2018-12-01T20:47:07.052Z,4.93
2018-12-01T20:49:35.200Z,5.50
2018-12-01T20:52:03.311Z,4.63
2018-12-01T20:54:37.037Z,5.90
2018-12-01T20:57:22.519Z,6.00
2018-12-01T20:59:50.680Z,4.23
2018-12-01T21:02:18.777Z,3.60
2018-12-01T21:04:47.021Z,3.30
2018-12-01T21:07:15.047Z,3.80
2018-12-01T21:09:43.106Z,4.23
2018-12-01T21:12:11.691Z,2.80
2018-12-01T21:14:39.741Z,5.33
2018-12-01T21:17:07.857Z,2.73
2018-12-01T21:19:35.940Z,2.27
2018-12-01T21:22:03.988Z,4.80
2018-12-01T21:24:32.055Z,2.73
2018-12-01T21:27:00.194Z,6.07
2018-12-01T21:29:28.283Z,5.37
2018-12-01T21:31:56.320Z,4.33
2018-12-01T21:34:24.374Z,5.53
2018-12-01T21:36:52.432Z,4.27
2018-12-01T21:39:20.506Z,2.73
2018-12-01T21:41:48.586Z,2.93
2018-12-01T21:44:16.653Z,4.20
2018-12-01T21:46:44.730Z,5.33
2018-12-01T21:49:12.826Z,4.97
2018-12-01T21:51:41.029Z,2.67
2018-12-01T21:54:09.156Z,2.83
2018-12-01T21:56:37.328Z,4.50
2018-12-01T21:59:05.506Z,5.23
2018-12-01T22:01:33.584Z,3.00
2018-12-01T22:04:01.572Z,3.97
2018-12-01T22:06:29.683Z,2.90
2018-12-01T22:08:57.673Z,3.47
2018-12-01T22:11:25.796Z,2.63
2018-12-01T22:13:53.839Z,3.70
2018-12-01T22:16:22.108Z,3.40
2018-12-01T22:18:50.160Z,2.53
2018-12-01T22:21:18.123Z,2.37
2018-12-01T22:23:46.124Z,2.70
2018-12-01T22:26:14.217Z,4.83
2018-12-01T22:28:42.300Z,4.10
2018-12-01T22:31:10.394Z,2.60
2018-12-01T22:33:38.405Z,3.87
2018-12-01T22:36:06.421Z,4.13
2018-12-01T22:38:34.486Z,4.13
2018-12-01T22:41:02.711Z,4.27
2018-12-01T22:43:30.804Z,4.63
2018-12-01T22:45:58.913Z,3.17
2018-12-01T22:48:26.983Z,3.57
2018-12-01T22:50:55.581Z,3.40
2018-12-01T22:53:23.627Z,2.97
2018-12-01T22:55:52.037Z,3.00
2018-12-01T22:58:20.495Z,2.83
2018-12-01T23:00:50.007Z,4.27
2018-12-01T23:03:18.100Z,3.20
2018-12-01T23:05:46.123Z,3.37
2018-12-01T23:08:14.732Z,2.37
2018-12-01T23:10:42.827Z,3.50
2018-12-01T23:13:10.906Z,2.73
2018-12-01T23:15:39.108Z,2.77
2018-12-01T23:18:08.044Z,2.50
2018-12-01T23:20:36.455Z,3.57
2018-12-01T23:23:04.502Z,4.83
2018-12-01T23:25:33.013Z,4.43
2018-12-01T23:28:01.111Z,4.63
2018-12-01T23:30:29.628Z,4.43
2018-12-01T23:32:58.417Z,3.03
2018-12-01T23:35:26.423Z,3.00
2018-12-01T23:37:54.439Z,3.57
2018-12-01T23:40:22.448Z,4.03
2018-12-01T23:42:50.596Z,2.57
2018-12-01T23:45:19.205Z,4.90
2018-12-01T23:47:47.471Z,3.93
2018-12-01T23:50:17.001Z,2.60
2018-12-01T23:52:45.347Z,3.67
2018-12-01T23:55:13.799Z,4.30
2018-12-01T23:57:41.792Z,2.77
